Time;durP1;ratioP1;P1;durP2;ratioP2;P2;SDS_P1;SDS_P2;PMS_P1;PMS_P2;Temp;Humidity;BMP_temperature;BMP_pressure;BME280_temperature;BME280_humidity;BME280_pressure;Samples;Min_cycle;Max_cycle;Signal;HPM_P1;HPM_P2
2022/09/26 00:01:33;;;;;;;10.02;6.95;;;10.30;99.90;;;;;;5032525;28;20202;-76
2022/09/26 00:04:01;;;;;;;7.38;6.38;;;10.20;99.90;;;;;;5032731;28;20167;-76
2022/09/26 00:06:28;;;;;;;7.55;6.57;;;10.20;99.90;;;;;;5032210;28;20269;-76
2022/09/26 00:08:54;;;;;;;6.55;5.82;;;10.10;99.90;;;;;;5032192;28;20236;-76
2022/09/26 00:11:23;;;;;;;8.82;6.15;;;10.30;99.90;;;;;;5033478;28;20194;-76
2022/09/26 00:13:54;;;;;;;13.10;6.60;;;10.40;99.90;;;;;;5033517;28;20183;-76
2022/09/26 00:16:20;;;;;;;7.55;6.85;;;10.30;99.90;;;;;;5033420;28;20171;-76
2022/09/26 00:18:48;;;;;;;9.23;7.60;;;10.30;99.90;;;;;;5032018;28;20179;-76
2022/09/26 00:21:15;;;;;;;8.23;7.20;;;10.20;99.90;;;;;;5032242;28;20241;-76
2022/09/26 00:23:41;;;;;;;8.13;7.03;;;10.20;99.90;;;;;;5031733;28;20624;-76
2022/09/26 00:26:07;;;;;;;9.70;7.22;;;10.20;99.90;;;;;;5033328;28;20203;-76
2022/09/26 00:28:33;;;;;;;9.30;7.68;;;10.30;99.90;;;;;;5033715;28;20222;-76
2022/09/26 00:31:07;;;;;;;9.35;6.88;;;10.20;99.90;;;;;;5031781;28;20175;-76
2022/09/26 00:33:33;;;;;;;7.55;6.85;;;10.30;99.90;;;;;;5031783;28;20266;-76
2022/09/26 00:35:59;;;;;;;7.72;6.97;;;10.30;99.90;;;;;;5031710;28;20265;-76
2022/09/26 00:38:24;;;;;;;7.43;6.63;;;10.30;99.90;;;;;;5031942;28;20202;-76
2022/09/26 00:40:50;;;;;;;7.53;6.60;;;10.20;99.90;;;;;;5031770;28;20276;-76
2022/09/26 00:43:34;;;;;;;8.48;7.03;;;10.20;99.90;;;;;;5032362;28;20182;-76
2022/09/26 00:46:20;;;;;;;8.38;6.35;;;10.20;99.90;;;;;;5032673;28;20167;-76
2022/09/26 00:48:51;;;;;;;8.50;6.30;;;10.20;99.90;;;;;;5031433;28;20167;-76
2022/09/26 00:51:17;;;;;;;9.38;6.15;;;10.10;99.90;;;;;;5030676;28;20185;-76
2022/09/26 00:53:47;;;;;;;7.10;6.40;;;10.10;99.90;;;;;;5031253;28;20206;-76
2022/09/26 00:56:25;;;;;;;9.15;6.32;;;10.10;99.90;;;;;;5033026;28;20183;-76
2022/09/26 00:58:55;;;;;;;9.38;6.72;;;10.00;99.90;;;;;;5032188;28;20171;-76
2022/09/26 01:01:21;;;;;;;8.77;6.22;;;9.90;99.90;;;;;;5031271;28;20194;-76
2022/09/26 01:03:49;;;;;;;6.80;6.13;;;9.90;99.90;;;;;;5031383;28;20211;-76
2022/09/26 01:06:16;;;;;;;7.95;6.72;;;9.80;99.90;;;;;;5031272;28;20183;-76
2022/09/26 01:08:48;;;;;;;7.32;6.70;;;9.80;99.90;;;;;;5031429;28;20286;-76
2022/09/26 01:11:14;;;;;;;10.20;6.72;;;9.80;99.90;;;;;;5031207;28;20179;-76
2022/09/26 01:13:41;;;;;;;9.75;6.70;;;9.80;99.90;;;;;;5031990;28;20270;-76
2022/09/26 01:16:07;;;;;;;7.32;6.15;;;9.80;99.90;;;;;;5032545;28;20189;-76
2022/09/26 01:18:34;;;;;;;7.38;6.60;;;9.80;99.90;;;;;;5032369;28;20194;-76
2022/09/26 01:21:30;;;;;;;8.32;6.53;;;9.80;99.90;;;;;;5031366;28;20203;-76
2022/09/26 01:24:08;;;;;;;9.63;7.40;;;9.80;99.90;;;;;;5032197;28;20168;-76
2022/09/26 01:27:17;;;;;;;8.52;6.78;;;9.80;99.90;;;;;;5031971;28;20174;-77
2022/09/26 01:30:00;;;;;;;7.40;6.65;;;9.70;99.90;;;;;;5030881;28;20163;-77
2022/09/26 01:32:47;;;;;;;8.50;6.13;;;9.70;99.90;;;;;;5031635;28;20194;-77
2022/09/26 01:35:50;;;;;;;8.05;6.47;;;9.60;99.90;;;;;;5032031;28;20234;-77
2022/09/26 01:38:25;;;;;;;7.82;7.05;;;9.50;99.90;;;;;;5030621;28;20199;-77
2022/09/26 01:40:59;;;;;;;7.22;6.53;;;9.50;99.90;;;;;;5030612;28;20359;-77
2022/09/26 01:43:37;;;;;;;10.43;6.70;;;9.50;99.90;;;;;;5032120;28;20166;-77
2022/09/26 01:46:07;;;;;;;9.02;6.75;;;9.50;99.90;;;;;;5030617;28;20171;-77
2022/09/26 01:48:53;;;;;;;7.00;6.40;;;9.50;99.90;;;;;;5030753;28;20222;-77
2022/09/26 01:51:34;;;;;;;7.70;6.43;;;9.50;99.90;;;;;;5031340;28;20186;-77
2022/09/26 01:54:07;;;;;;;6.63;6.03;;;9.50;99.90;;;;;;5030595;28;20233;-77
2022/09/26 01:56:37;;;;;;;7.10;5.90;;;9.50;99.90;;;;;;5030256;28;20194;-77
2022/09/26 01:59:09;;;;;;;7.43;6.75;;;9.50;99.90;;;;;;5031571;28;20200;-77
2022/09/26 02:01:39;;;;;;;6.50;5.90;;;9.50;99.90;;;;;;5030213;28;20744;-77
2022/09/26 02:04:20;;;;;;;9.60;6.20;;;9.60;99.90;;;;;;5030348;28;20625;-77
2022/09/26 02:06:54;;;;;;;6.40;5.80;;;9.50;99.90;;;;;;5030214;28;20213;-77
2022/09/26 02:09:41;;;;;;;7.07;6.43;;;9.40;99.90;;;;;;5030295;28;20175;-77
2022/09/26 02:12:12;;;;;;;7.18;6.10;;;9.40;99.90;;;;;;5030993;28;20182;-77
2022/09/26 02:14:40;;;;;;;8.85;6.07;;;9.40;99.90;;;;;;5031035;28;20175;-77
2022/09/26 02:17:21;;;;;;;9.35;7.03;;;9.40;99.90;;;;;;5030402;28;20734;-77
2022/09/26 02:20:01;;;;;;;8.57;6.97;;;9.30;99.90;;;;;;5030954;28;20202;-77
2022/09/26 02:22:30;;;;;;;12.63;8.10;;;9.30;99.90;;;;;;5031175;28;20163;-77
2022/09/26 02:24:56;;;;;;;11.90;9.18;;;9.30;99.90;;;;;;5031421;28;20175;-77
2022/09/26 02:27:24;;;;;;;11.50;8.65;;;9.10;99.90;;;;;;5030175;28;20221;-77
2022/09/26 02:29:50;;;;;;;9.45;8.23;;;9.10;99.90;;;;;;5030726;28;20584;-77
2022/09/26 02:32:20;;;;;;;12.57;11.27;;;9.10;99.90;;;;;;5031087;28;20175;-76
2022/09/26 02:34:47;;;;;;;13.60;11.32;;;9.00;99.90;;;;;;5030054;28;20622;-76
2022/09/26 02:37:15;;;;;;;20.60;17.15;;;9.00;99.90;;;;;;5029771;28;20195;-76
2022/09/26 02:39:45;;;;;;;23.15;17.20;;;9.10;99.90;;;;;;5030578;28;20490;-76
2022/09/26 02:42:23;;;;;;;16.77;15.02;;;9.20;99.90;;;;;;5029827;28;20716;-76
2022/09/26 02:45:13;;;;;;;13.75;12.00;;;9.30;99.90;;;;;;5029688;28;20178;-76
2022/09/26 02:48:20;;;;;;;10.68;9.68;;;9.40;99.90;;;;;;5029942;28;20198;-76
2022/09/26 02:51:01;;;;;;;7.60;6.90;;;9.40;99.90;;;;;;5029692;28;20576;-76
2022/09/26 02:53:35;;;;;;;7.32;6.57;;;9.40;99.90;;;;;;5030085;28;20190;-76
2022/09/26 02:56:15;;;;;;;10.32;7.20;;;9.40;99.90;;;;;;5030698;28;20167;-77
2022/09/26 02:58:53;;;;;;;9.35;6.57;;;9.30;99.90;;;;;;5031176;28;20206;-77
2022/09/26 03:01:30;;;;;;;7.72;6.22;;;9.40;99.90;;;;;;5127552;27;20657;-77
2022/09/26 03:04:07;;;;;;;11.20;6.85;;;9.40;99.90;;;;;;5134623;27;20167;-77
2022/09/26 03:06:36;;;;;;;6.90;6.10;;;9.40;99.90;;;;;;5134355;27;20159;-77
2022/09/26 03:09:03;;;;;;;9.55;6.50;;;9.40;99.90;;;;;;5133231;27;20213;-77
2022/09/26 03:11:31;;;;;;;9.25;6.00;;;9.40;99.90;;;;;;5134187;28;20182;-77
2022/09/26 03:13:57;;;;;;;6.68;5.78;;;9.40;99.90;;;;;;5134254;27;20641;-77
2022/09/26 03:16:26;;;;;;;8.75;6.25;;;9.50;99.90;;;;;;5134741;27;20266;-77
2022/09/26 03:19:08;;;;;;;35.55;7.53;;;9.50;99.90;;;;;;5133253;28;20665;-76
2022/09/26 03:21:34;;;;;;;20.80;8.27;;;9.40;99.90;;;;;;5134374;27;20240;-76
2022/09/26 03:23:59;;;;;;;11.88;8.38;;;9.30;99.90;;;;;;5133203;28;20164;-76
2022/09/26 03:27:03;;;;;;;33.38;9.52;;;9.30;99.90;;;;;;5133071;28;20179;-76
2022/09/26 03:29:31;;;;;;;61.08;10.98;;;9.30;99.90;;;;;;5133133;28;20246;-76
2022/09/26 03:31:59;;;;;;;41.90;9.70;;;9.20;99.90;;;;;;5133047;28;20176;-76
2022/09/26 03:34:25;;;;;;;34.78;9.48;;;9.10;99.90;;;;;;5132965;28;20175;-76
2022/09/26 03:36:50;;;;;;;17.92;10.43;;;9.10;99.90;;;;;;5134070;27;20317;-76
2022/09/26 03:39:16;;;;;;;46.45;10.20;;;9.10;99.90;;;;;;5133065;28;20215;-76
2022/09/26 03:41:41;;;;;;;74.80;9.98;;;8.90;99.90;;;;;;5133042;28;20199;-76
2022/09/26 03:44:07;;;;;;;36.05;10.27;;;8.80;99.90;;;;;;5134319;28;20179;-76
2022/09/26 03:46:33;;;;;;;52.80;9.65;;;8.80;99.90;;;;;;5133941;28;20228;-76
2022/09/26 03:48:58;;;;;;;34.65;8.98;;;8.80;99.90;;;;;;5134476;28;20167;-76
2022/09/26 03:51:24;;;;;;;12.60;7.50;;;8.80;99.90;;;;;;5134010;28;20182;-76
2022/09/26 03:53:50;;;;;;;8.38;6.90;;;8.80;99.90;;;;;;5134562;27;20198;-76
2022/09/26 03:56:17;;;;;;;7.50;6.80;;;8.70;99.90;;;;;;5134057;28;20184;-76
2022/09/26 03:58:44;;;;;;;9.55;7.05;;;8.60;99.90;;;;;;5132808;28;20230;-76
2022/09/26 04:01:12;;;;;;;9.13;7.43;;;8.50;99.90;;;;;;5132926;28;20221;-76
2022/09/26 04:03:40;;;;;;;7.97;7.13;;;8.40;99.90;;;;;;5135748;27;20313;-76
2022/09/26 04:06:08;;;;;;;9.18;7.32;;;8.40;99.90;;;;;;5135688;27;20171;-76
2022/09/26 04:08:36;;;;;;;7.72;7.03;;;8.30;99.90;;;;;;5134607;28;20187;-76
2022/09/26 04:11:04;;;;;;;8.00;7.15;;;8.30;99.90;;;;;;5134750;28;20236;-76
2022/09/26 04:13:30;;;;;;;9.18;7.35;;;8.30;99.90;;;;;;5134468;28;20672;-76
2022/09/26 04:15:57;;;;;;;7.80;6.63;;;8.30;99.90;;;;;;5136040;27;20203;-76
2022/09/26 04:18:23;;;;;;;7.80;6.68;;;8.30;99.90;;;;;;5134493;28;20217;-76
2022/09/26 04:20:48;;;;;;;7.30;6.70;;;8.20;99.90;;;;;;5139655;28;20199;-76
2022/09/26 04:23:14;;;;;;;6.80;6.20;;;8.20;99.90;;;;;;5135545;28;20174;-76
2022/09/26 04:25:40;;;;;;;12.32;9.82;;;8.10;99.90;;;;;;5136148;27;20183;-76
2022/09/26 04:28:07;;;;;;;18.02;14.07;;;8.10;99.90;;;;;;5142516;27;20191;-75
2022/09/26 04:30:32;;;;;;;27.02;24.10;;;8.00;99.90;;;;;;5144315;27;20175;-75
2022/09/26 04:33:39;;;;;;;11.63;10.25;;;7.90;99.90;;;;;;5141081;27;20182;-79
2022/09/26 04:36:08;;;;;;;40.42;27.33;;;7.80;99.90;;;;;;5136201;27;20223;-77
2022/09/26 04:38:33;;;;;;;38.42;24.73;;;7.70;99.90;;;;;;5136418;27;20195;-77
2022/09/26 04:41:03;;;;;;;33.60;24.02;;;7.70;99.90;;;;;;5135952;27;20199;-77
2022/09/26 04:43:29;;;;;;;11.45;9.10;;;7.70;99.90;;;;;;5135983;27;20167;-78
2022/09/26 04:45:54;;;;;;;11.75;8.55;;;7.70;99.90;;;;;;5135859;27;20173;-77
2022/09/26 04:48:20;;;;;;;11.30;10.13;;;7.70;99.90;;;;;;5135927;27;20187;-77
2022/09/26 04:50:46;;;;;;;25.90;14.23;;;7.60;99.90;;;;;;5137015;27;20271;-76
2022/09/26 04:53:12;;;;;;;40.97;19.70;;;7.60;99.90;;;;;;5135761;27;20658;-76
2022/09/26 04:55:41;;;;;;;45.03;22.30;;;7.60;99.90;;;;;;5135643;27;20274;-77
2022/09/26 04:58:07;;;;;;;29.55;17.90;;;7.60;99.90;;;;;;5135586;27;20200;-76
2022/09/26 05:00:32;;;;;;;29.80;15.35;;;7.50;99.90;;;;;;5136780;27;20201;-76
2022/09/26 05:02:58;;;;;;;24.55;14.75;;;7.50;99.90;;;;;;5135559;27;20600;-76
2022/09/26 05:05:24;;;;;;;21.10;12.65;;;7.40;99.90;;;;;;5135583;27;20213;-76
2022/09/26 05:07:49;;;;;;;16.33;10.40;;;7.40;99.90;;;;;;5136543;27;20203;-76
2022/09/26 05:10:15;;;;;;;12.73;9.85;;;7.30;99.90;;;;;;5135392;27;20667;-76
2022/09/26 05:12:40;;;;;;;12.55;10.48;;;7.20;99.90;;;;;;5136623;27;20517;-76
2022/09/26 05:15:09;;;;;;;17.40;14.23;;;7.30;99.90;;;;;;5136527;27;20171;-76
2022/09/26 05:17:36;;;;;;;19.70;16.05;;;7.30;99.90;;;;;;5135169;27;20195;-76
2022/09/26 05:20:08;;;;;;;17.52;14.77;;;7.30;99.90;;;;;;5135168;27;20227;-76
2022/09/26 05:22:34;;;;;;;15.80;14.10;;;7.40;99.90;;;;;;5136087;27;20213;-77
2022/09/26 05:27:44;;;;;;;23.23;16.92;;;7.60;99.90;;;;;;5136735;27;20613;-76
2022/09/26 05:30:13;;;;;;;21.23;14.60;;;7.70;99.90;;;;;;5134972;27;20206;-76
2022/09/26 05:32:39;;;;;;;13.10;10.27;;;7.80;99.90;;;;;;5135051;27;20176;-76
2022/09/26 05:35:06;;;;;;;45.38;9.52;;;7.90;99.90;;;;;;5135271;27;20210;-76
2022/09/26 05:37:32;;;;;;;11.20;8.80;;;7.90;99.90;;;;;;5134859;27;20247;-76
2022/09/26 05:42:42;;;;;;;10.90;9.55;;;8.00;99.90;;;;;;5136611;27;20167;-77
2022/09/26 05:45:08;;;;;;;10.48;9.38;;;8.10;99.90;;;;;;5135516;27;20171;-77
2022/09/26 05:47:38;;;;;;;11.57;10.00;;;8.40;99.90;;;;;;5135740;27;20194;-77
2022/09/26 05:50:08;;;;;;;13.98;10.65;;;8.50;99.90;;;;;;5134613;27;20207;-77
2022/09/26 05:52:35;;;;;;;13.75;10.02;;;8.70;99.90;;;;;;5134651;27;20183;-77
2022/09/26 05:55:00;;;;;;;14.23;11.05;;;8.80;99.90;;;;;;5135504;27;20164;-77
2022/09/26 05:57:26;;;;;;;11.63;10.52;;;8.90;99.90;;;;;;5134841;27;20202;-76
2022/09/26 05:59:52;;;;;;;13.13;10.13;;;9.00;99.90;;;;;;5135254;27;20178;-76
2022/09/26 06:02:17;;;;;;;11.23;10.13;;;9.10;99.90;;;;;;5134396;27;20186;-76
2022/09/26 06:04:43;;;;;;;12.95;10.90;;;9.20;99.90;;;;;;5134518;27;20179;-76
2022/09/26 06:07:09;;;;;;;11.63;10.57;;;9.30;99.90;;;;;;5134581;27;20195;-76
2022/09/26 06:09:35;;;;;;;12.93;10.85;;;9.30;99.90;;;;;;5134493;27;20172;-76
2022/09/26 06:12:00;;;;;;;13.18;11.70;;;9.40;99.90;;;;;;5134083;27;20175;-76
2022/09/26 06:14:49;;;;;;;14.85;11.60;;;9.40;99.90;;;;;;5135491;27;20210;-76
2022/09/26 06:17:14;;;;;;;13.50;12.27;;;9.50;99.90;;;;;;5134075;27;20206;-76
2022/09/26 06:19:40;;;;;;;13.75;11.68;;;9.60;99.90;;;;;;5106700;27;20187;-76
2022/09/26 06:22:05;;;;;;;12.70;11.45;;;9.70;99.90;;;;;;5030533;28;20185;-76
2022/09/26 06:24:31;;;;;;;16.40;12.77;;;9.80;99.90;;;;;;5031284;28;20177;-76
2022/09/26 06:26:56;;;;;;;13.98;12.57;;;9.70;99.90;;;;;;5030152;28;20191;-76
2022/09/26 06:29:22;;;;;;;19.25;13.50;;;9.80;99.90;;;;;;5030546;28;20178;-76
2022/09/26 06:31:50;;;;;;;14.25;12.57;;;9.90;99.90;;;;;;5031090;28;20228;-76
2022/09/26 06:34:16;;;;;;;17.95;13.23;;;9.90;99.90;;;;;;5029995;28;20171;-75
2022/09/26 06:37:05;;;;;;;15.65;14.02;;;10.10;99.90;;;;;;5029867;28;20729;-75
2022/09/26 06:39:34;;;;;;;16.10;14.18;;;10.10;99.90;;;;;;5031588;28;20167;-75
2022/09/26 06:42:06;;;;;;;18.23;16.38;;;10.20;99.90;;;;;;5030118;28;20289;-75
2022/09/26 06:44:32;;;;;;;20.60;18.45;;;10.50;99.90;;;;;;5029690;28;20174;-75
2022/09/26 06:47:01;;;;;;;21.85;19.70;;;10.60;99.90;;;;;;5029565;28;20297;-75
2022/09/26 06:49:27;;;;;;;16.77;14.57;;;10.90;99.90;;;;;;5028911;28;20218;-76
2022/09/26 06:51:53;;;;;;;16.80;13.52;;;11.00;99.90;;;;;;5030400;28;20183;-76
2022/09/26 06:54:19;;;;;;;22.20;15.88;;;11.10;99.90;;;;;;5029332;28;20203;-75
2022/09/26 06:56:44;;;;;;;23.50;21.10;;;10.90;99.90;;;;;;5029600;28;20294;-75
2022/09/26 06:59:10;;;;;;;23.55;21.10;;;10.90;99.90;;;;;;5029431;28;20186;-76
2022/09/26 07:01:35;;;;;;;18.88;16.88;;;10.80;99.90;;;;;;5029493;28;20220;-76
2022/09/26 07:04:02;;;;;;;29.98;26.80;;;10.90;99.90;;;;;;5029362;28;20175;-75
2022/09/26 07:06:27;;;;;;;31.08;27.75;;;10.90;99.90;;;;;;5028895;28;20175;-76
2022/09/26 07:08:54;;;;;;;19.88;17.20;;;11.10;99.90;;;;;;5029363;28;20174;-76
2022/09/26 07:11:20;;;;;;;16.55;14.80;;;11.30;99.90;;;;;;5029544;28;20182;-76
2022/09/26 07:13:46;;;;;;;18.75;13.95;;;11.50;99.90;;;;;;5029226;28;20183;-76
2022/09/26 07:16:12;;;;;;;16.70;13.82;;;11.40;99.90;;;;;;5061591;28;20645;-76
2022/09/26 07:18:38;;;;;;;18.02;13.13;;;11.50;99.90;;;;;;5132910;28;20199;-76
2022/09/26 07:21:07;;;;;;;15.52;13.02;;;11.30;99.90;;;;;;5108208;27;20209;-76
2022/09/26 07:23:34;;;;;;;20.38;13.93;;;11.40;99.90;;;;;;5028916;28;20179;-76
2022/09/26 07:26:01;;;;;;;20.52;18.42;;;11.40;99.90;;;;;;5029313;28;20185;-76
2022/09/26 07:28:26;;;;;;;22.63;17.00;;;11.50;99.90;;;;;;5028921;28;20278;-75
2022/09/26 07:30:56;;;;;;;22.10;16.80;;;11.60;99.90;;;;;;5042456;28;20267;-76
2022/09/26 07:33:22;;;;;;;20.48;17.33;;;11.60;99.90;;;;;;5133219;28;20200;-76
2022/09/26 07:35:48;;;;;;;21.60;15.85;;;11.60;99.90;;;;;;5132445;28;20188;-76
2022/09/26 07:38:13;;;;;;;19.50;13.18;;;11.80;99.90;;;;;;5132919;28;20281;-76
2022/09/26 07:40:42;;;;;;;21.52;13.02;;;11.90;99.90;;;;;;5130047;27;20202;-76
2022/09/26 07:43:09;;;;;;;18.35;16.00;;;12.00;99.90;;;;;;5029002;28;20182;-76
2022/09/26 07:51:05;;;;;;;21.33;18.02;;;12.30;99.90;;;;;;5046940;28;20251;-76
2022/09/26 07:53:30;;;;;;;21.60;13.73;;;12.40;99.90;;;;;;5028782;28;20195;-76
2022/09/26 07:56:06;;;;;;;18.67;14.35;;;12.40;99.90;;;;;;5029473;28;20191;-76
2022/09/26 07:58:32;;;;;;;14.50;13.00;;;12.60;99.90;;;;;;5028528;28;20198;-76
2022/09/26 08:00:58;;;;;;;14.32;12.82;;;12.80;99.90;;;;;;5032222;28;20214;-76
2022/09/26 08:03:28;;;;;;;15.48;11.38;;;13.10;99.90;;;;;;5032084;28;20201;-76
2022/09/26 08:05:57;;;;;;;22.33;13.45;;;13.10;99.90;;;;;;5075569;27;20168;-76
2022/09/26 08:08:22;;;;;;;14.75;13.20;;;13.10;99.90;;;;;;5079400;27;20202;-76
2022/09/26 08:10:48;;;;;;;15.82;12.85;;;13.00;99.90;;;;;;5032150;28;20187;-76
2022/09/26 08:13:14;;;;;;;15.15;11.77;;;13.10;99.90;;;;;;5032542;28;20171;-76
2022/09/26 08:15:39;;;;;;;17.17;14.00;;;13.10;99.90;;;;;;5032740;28;20174;-76
2022/09/26 08:18:05;;;;;;;18.08;14.95;;;13.10;99.90;;;;;;5032102;28;20278;-76
2022/09/26 08:20:31;;;;;;;23.95;19.40;;;13.20;99.90;;;;;;5033065;28;20217;-76
2022/09/26 08:22:56;;;;;;;37.83;28.08;;;13.00;99.90;;;;;;5031796;28;20175;-76
2022/09/26 08:25:22;;;;;;;23.45;16.13;;;13.10;99.90;;;;;;5033115;28;20183;-76
2022/09/26 08:27:49;;;;;;;24.30;16.38;;;13.10;99.90;;;;;;5031975;28;20240;-76
2022/09/26 08:30:15;;;;;;;21.60;15.02;;;13.20;99.90;;;;;;5031415;28;20211;-76
2022/09/26 08:32:40;;;;;;;19.20;13.27;;;13.40;99.90;;;;;;5032892;28;20222;-76
2022/09/26 08:35:10;;;;;;;17.38;12.30;;;13.70;99.90;;;;;;5032557;28;20200;-76
2022/09/26 08:37:36;;;;;;;16.80;12.20;;;14.20;99.90;;;;;;5031807;28;20195;-76
2022/09/26 08:40:02;;;;;;;16.60;9.60;;;14.50;99.90;;;;;;5032775;28;20172;-77
2022/09/26 08:42:53;;;;;;;16.73;10.95;;;14.40;99.90;;;;;;5031660;28;20168;-76
2022/09/26 08:48:25;;;;;;;17.50;10.68;;;14.40;99.90;;;;;;5032978;28;20202;-76
2022/09/26 08:50:58;;;;;;;18.90;12.68;;;14.10;99.90;;;;;;5031698;28;20175;-76
2022/09/26 08:53:42;;;;;;;11.45;8.20;;;14.00;99.90;;;;;;5031972;28;20195;-76
2022/09/26 08:56:18;;;;;;;14.85;8.35;;;13.90;99.90;;;;;;5031503;28;20171;-76
2022/09/26 08:58:50;;;;;;;13.35;9.60;;;14.10;99.90;;;;;;5031420;28;20571;-76
2022/09/26 09:01:29;;;;;;;9.52;7.60;;;14.50;99.90;;;;;;5031358;28;20285;-76
2022/09/26 09:04:06;;;;;;;11.85;7.13;;;14.60;99.90;;;;;;5031312;28;20641;-77
2022/09/26 09:06:33;;;;;;;14.93;7.57;;;14.70;99.90;;;;;;5019781;28;20657;-76
2022/09/26 09:08:58;;;;;;;8.65;5.97;;;14.90;99.90;;;;;;5012493;28;20184;-76
2022/09/26 09:11:46;;;;;;;17.80;6.65;;;15.00;99.90;;;;;;5010588;28;20197;-76
2022/09/26 09:14:20;;;;;;;9.88;6.68;;;15.10;99.90;;;;;;5011562;28;20164;-76
2022/09/26 09:17:27;;;;;;;10.50;5.50;;;15.40;99.90;;;;;;5012292;28;20289;-84
2022/09/26 09:20:15;;;;;;;8.27;5.60;;;15.60;99.90;;;;;;5011862;28;20163;-76
2022/09/26 09:23:07;;;;;;;7.32;5.35;;;15.70;99.90;;;;;;5014580;28;20241;-76
2022/09/26 09:26:25;;;;;;;29.92;7.13;;;15.40;99.90;;;;;;5028633;28;20200;-78
2022/09/26 09:29:28;;;;;;;11.38;6.03;;;15.00;99.90;;;;;;5054582;28;20250;-77
2022/09/26 09:31:56;;;;;;;9.95;5.63;;;15.00;99.90;;;;;;5045473;28;20194;-77
2022/09/26 09:34:30;;;;;;;10.05;6.20;;;15.00;99.90;;;;;;5012874;28;20623;-77
2022/09/26 09:37:02;;;;;;;6.60;5.43;;;14.90;99.90;;;;;;5012076;28;20191;-76
2022/09/26 09:39:42;;;;;;;12.82;5.57;;;14.80;99.90;;;;;;5012231;28;20168;-76
2022/09/26 09:42:44;;;;;;;19.08;6.53;;;14.70;99.90;;;;;;5021198;27;20274;-76
2022/09/26 09:45:22;;;;;;;7.70;5.50;;;14.80;99.90;;;;;;5043493;28;20213;-77
2022/09/26 09:47:51;;;;;;;6.45;4.50;;;15.20;99.90;;;;;;5030615;28;20195;-77
2022/09/26 09:50:51;;;;;;;6.88;4.55;;;15.40;99.90;;;;;;5032052;28;20231;-77
2022/09/26 09:53:38;;;;;;;7.05;4.55;;;15.50;99.90;;;;;;5038784;28;20206;-76
2022/09/26 09:56:38;;;;;;;7.68;5.00;;;15.60;99.90;;;;;;5031511;28;20179;-76
2022/09/26 09:59:23;;;;;;;8.57;5.30;;;15.50;99.90;;;;;;5031621;28;20174;-76
2022/09/26 10:02:10;;;;;;;15.20;4.50;;;15.40;99.90;;;;;;5031206;28;20202;-77
2022/09/26 10:04:47;;;;;;;6.82;3.95;;;15.40;99.90;;;;;;5031554;28;20178;-77
2022/09/26 10:07:13;;;;;;;7.90;4.20;;;15.30;99.90;;;;;;5030158;28;20187;-77
2022/09/26 10:09:41;;;;;;;7.45;4.00;;;15.20;99.90;;;;;;5031731;27;20182;-76
2022/09/26 10:12:21;;;;;;;6.25;4.35;;;15.10;99.90;;;;;;5031195;28;20186;-76
2022/09/26 10:14:57;;;;;;;7.28;3.65;;;15.20;99.90;;;;;;5030440;28;20222;-77
2022/09/26 10:17:23;;;;;;;4.15;3.60;;;15.60;99.90;;;;;;5030282;28;20195;-77
2022/09/26 10:19:58;;;;;;;15.13;3.97;;;16.00;99.90;;;;;;5031379;28;20179;-76
2022/09/26 10:22:36;;;;;;;6.90;3.95;;;15.80;99.90;;;;;;5030247;28;20186;-76
2022/09/26 10:25:07;;;;;;;6.13;4.22;;;15.60;99.90;;;;;;5030177;28;20583;-76
2022/09/26 10:27:38;;;;;;;5.55;4.18;;;15.70;99.90;;;;;;5030731;28;20195;-76
2022/09/26 10:30:24;;;;;;;4.20;3.40;;;15.80;99.90;;;;;;5031416;28;20182;-76
2022/09/26 10:33:02;;;;;;;6.72;5.10;;;15.80;99.90;;;;;;5030379;28;20163;-76
2022/09/26 10:35:44;;;;;;;7.65;3.80;;;16.00;99.90;;;;;;5030316;28;20163;-77
2022/09/26 10:38:26;;;;;;;7.32;3.80;;;16.20;99.90;;;;;;5031312;28;20664;-77
2022/09/26 10:41:00;;;;;;;6.50;3.22;;;16.10;99.90;;;;;;5031421;28;20240;-76
2022/09/26 10:43:29;;;;;;;4.70;3.67;;;16.20;99.90;;;;;;5030366;28;20167;-77
2022/09/26 10:46:12;;;;;;;6.30;3.50;;;16.50;99.90;;;;;;5073716;27;20168;-76
2022/09/26 10:49:02;;;;;;;5.85;3.20;;;16.90;99.90;;;;;;5119135;27;20236;-77
2022/09/26 10:51:30;;;;;;;5.60;3.25;;;17.10;99.90;;;;;;5029755;28;20171;-76
2022/09/26 10:54:21;;;;;;;5.22;3.13;;;17.00;99.90;;;;;;5029385;28;20241;-76
2022/09/26 10:56:53;;;;;;;5.28;3.28;;;16.70;99.90;;;;;;5029388;28;20754;-76
2022/09/26 10:59:40;;;;;;;5.50;3.03;;;16.50;99.90;;;;;;5029609;28;20177;-76
2022/09/26 11:02:31;;;;;;;6.18;3.10;;;16.50;99.90;;;;;;5029226;28;20194;-76
2022/09/26 11:08:15;;;;;;;9.82;2.90;;;16.90;99.90;;;;;;5030896;28;20198;-77
2022/09/26 11:10:45;;;;;;;4.43;2.75;;;17.00;99.90;;;;;;5128288;27;20175;-76
2022/09/26 11:13:22;;;;;;;2.90;2.58;;;16.80;99.90;;;;;;5133338;28;20220;-76
2022/09/26 11:16:00;;;;;;;5.35;2.65;;;16.60;99.90;;;;;;5133394;28;20221;-76
2022/09/26 11:22:28;;;;;;;6.65;2.50;;;16.30;99.90;;;;;;5134647;28;20268;-76
2022/09/26 11:25:00;;;;;;;3.90;2.05;;;16.10;99.90;;;;;;5115878;28;20179;-76
2022/09/26 11:28:05;;;;;;;4.05;2.40;;;15.90;99.90;;;;;;5134638;27;20203;-76
2022/09/26 11:34:12;;;;;;;5.40;2.83;;;15.40;99.90;;;;;;5134955;27;20158;-76
2022/09/26 11:37:13;;;;;;;4.47;2.90;;;15.50;99.90;;;;;;5137280;27;20630;-76
2022/09/26 11:43:43;;;;;;;5.43;2.40;;;15.30;99.90;;;;;;5138771;27;20209;-77
2022/09/26 11:49:48;;;;;;;5.15;1.98;;;15.90;99.90;;;;;;5138241;27;20192;-76
2022/09/26 11:52:29;;;;;;;3.05;1.60;;;15.80;99.90;;;;;;5138216;27;20178;-77
2022/09/26 11:58:59;;;;;;;2.95;1.30;;;16.40;99.90;;;;;;5138373;27;20187;-76
2022/09/26 12:01:44;;;;;;;1.75;1.52;;;16.90;99.90;;;;;;5096719;27;20685;-77
2022/09/26 12:08:08;;;;;;;2.20;1.98;;;16.90;99.90;;;;;;5138129;27;20547;-76
2022/09/26 12:11:06;;;;;;;9.38;2.60;;;16.60;99.90;;;;;;5072994;27;20192;-80
2022/09/26 12:14:10;;;;;;;2.55;1.85;;;16.50;99.90;;;;;;5012155;28;20195;-77
2022/09/26 12:17:05;;;;;;;5.72;2.03;;;16.50;99.90;;;;;;5012372;28;20190;-76
2022/09/26 12:19:54;;;;;;;2.20;1.80;;;16.60;99.90;;;;;;5012145;28;20168;-76
2022/09/26 12:23:01;;;;;;;3.38;1.70;;;16.70;99.90;;;;;;5012331;28;20270;-76
2022/09/26 12:26:13;;;;;;;3.47;1.95;;;16.70;99.90;;;;;;5012218;28;20171;-76
2022/09/26 12:32:08;;;;;;;3.67;1.60;;;16.50;99.90;;;;;;5013196;28;20194;-77
2022/09/26 12:35:03;;;;;;;8.38;2.15;;;16.50;99.90;;;;;;5013397;28;20168;-77
2022/09/26 12:37:52;;;;;;;2.75;2.30;;;16.60;99.90;;;;;;5013203;28;20192;-76
2022/09/26 12:40:49;;;;;;;2.60;1.60;;;16.80;99.90;;;;;;5012346;28;20257;-76
2022/09/26 12:44:03;;;;;;;2.38;1.80;;;16.60;99.90;;;;;;5013052;28;20196;-76
2022/09/26 12:46:55;;;;;;;1.77;1.65;;;16.30;99.90;;;;;;4993235;28;20221;-76
2022/09/26 12:49:40;;;;;;;4.97;1.60;;;16.30;99.90;;;;;;5012301;28;20192;-76
2022/09/26 12:52:38;;;;;;;2.53;1.70;;;16.40;99.90;;;;;;5012637;28;20263;-76
2022/09/26 12:55:37;;;;;;;4.47;1.95;;;16.60;99.90;;;;;;5010024;28;20187;-76
2022/09/26 12:58:23;;;;;;;3.05;1.88;;;16.60;99.90;;;;;;5012142;28;20204;-76
2022/09/26 13:01:01;;;;;;;4.32;1.95;;;16.60;99.90;;;;;;5012942;28;20271;-76
2022/09/26 13:03:53;;;;;;;13.77;2.17;;;16.70;99.90;;;;;;5036381;27;20185;-76
2022/09/26 13:06:54;;;;;;;4.00;1.75;;;16.60;99.90;;;;;;5051462;28;20224;-77
2022/09/26 13:09:58;;;;;;;3.88;1.92;;;16.50;99.90;;;;;;5101537;27;20171;-77
2022/09/26 13:12:39;;;;;;;3.65;1.70;;;16.60;99.90;;;;;;5011580;28;20209;-77
2022/09/26 13:15:31;;;;;;;3.03;1.70;;;16.80;99.90;;;;;;5011711;28;20171;-77
2022/09/26 13:18:16;;;;;;;3.17;1.65;;;17.00;99.90;;;;;;5067102;27;20191;-77
2022/09/26 13:21:01;;;;;;;4.28;1.58;;;17.00;99.90;;;;;;5134869;27;20200;-77
2022/09/26 13:23:42;;;;;;;6.13;1.63;;;16.90;99.90;;;;;;5052420;27;20170;-76
2022/09/26 13:26:18;;;;;;;4.10;1.88;;;16.80;99.90;;;;;;5052472;28;20167;-76
2022/09/26 13:28:56;;;;;;;2.53;1.48;;;16.50;99.90;;;;;;5051837;28;20190;-76
2022/09/26 13:31:39;;;;;;;1.70;1.27;;;16.40;99.90;;;;;;5052349;28;20163;-77
2022/09/26 13:35:10;;;;;;;2.03;1.30;;;16.40;99.90;;;;;;5051145;28;20193;-77
2022/09/26 13:37:51;;;;;;;3.70;1.42;;;16.20;99.90;;;;;;5051607;27;20201;-77
2022/09/26 13:41:08;;;;;;;1.63;1.42;;;16.20;99.90;;;;;;5050916;28;20586;-76
2022/09/26 13:44:02;;;;;;;3.92;1.60;;;16.20;99.90;;;;;;5050711;27;20167;-77
2022/09/26 13:46:34;;;;;;;1.30;1.20;;;16.00;99.90;;;;;;5051411;28;20170;-82
2022/09/26 13:49:19;;;;;;;2.28;1.30;;;15.90;99.90;;;;;;5041863;28;20214;-76
2022/09/26 13:52:23;;;;;;;2.38;1.70;;;15.80;99.90;;;;;;5028670;28;20198;-76
2022/09/26 13:54:59;;;;;;;2.95;1.15;;;15.80;99.90;;;;;;5043801;28;20194;-76
2022/09/26 13:57:34;;;;;;;2.70;1.35;;;15.80;99.90;;;;;;5049688;28;20194;-76
2022/09/26 14:00:15;;;;;;;3.20;1.13;;;15.90;99.90;;;;;;5048143;28;20178;-76
2022/09/26 14:02:41;;;;;;;4.38;1.33;;;16.00;99.90;;;;;;5044284;28;20166;-77
2022/09/26 14:05:12;;;;;;;1.33;1.30;;;16.10;99.90;;;;;;5028739;28;20170;-76